Time;durP1;ratioP1;P1;durP2;ratioP2;P2;SDS_P1;SDS_P2;PMS_P1;PMS_P2;Temp;Humidity;BMP_temperature;BMP_pressure;BME280_temperature;BME280_humidity;BME280_pressure;Samples;Min_cycle;Max_cycle;Signal;HPM_P1;HPM_P2
2022/04/29 00:01:17;;;;;;;7.85;4.45;;;;;;;;;;4961945;28;20030;-68
2022/04/29 00:04:04;;;;;;;10.15;5.28;;;;;;;;;;4978989;28;20066;-73
2022/04/29 00:06:50;;;;;;;7.28;4.47;;;;;;;;;;4976370;28;20082;-72
2022/04/29 00:09:35;;;;;;;9.00;4.78;;;;;;;;;;4982070;28;20125;-72
2022/04/29 00:12:21;;;;;;;9.85;5.43;;;;;;;;;;4968641;28;20042;-70
2022/04/29 00:15:06;;;;;;;8.38;4.97;;;;;;;;;;4985585;28;20082;-72
2022/04/29 00:17:52;;;;;;;7.22;5.00;;;;;;;;;;4969959;28;20042;-70
2022/04/29 00:20:38;;;;;;;8.25;5.03;;;;;;;;;;4973719;28;20042;-65
2022/04/29 00:23:23;;;;;;;7.72;4.95;;;;;;;;;;4960084;28;20062;-70
2022/04/29 00:26:08;;;;;;;7.75;4.65;;;;;;;;;;4973524;28;20561;-69
2022/04/29 00:28:53;;;;;;;7.35;4.63;;;;;;;;;;4970627;28;20030;-69
2022/04/29 00:31:39;;;;;;;6.25;4.82;;;;;;;;;;4968355;28;20042;-68
2022/04/29 00:34:24;;;;;;;8.05;4.80;;;;;;;;;;4970624;28;20087;-70
2022/04/29 00:37:10;;;;;;;8.70;5.22;;;;;;;;;;4969459;28;20030;-67
2022/04/29 00:39:55;;;;;;;9.27;5.28;;;;;;;;;;4968551;28;20043;-73
2022/04/29 00:42:41;;;;;;;7.40;5.13;;;;;;;;;;4968730;28;20034;-69
2022/04/29 00:45:26;;;;;;;8.98;5.03;;;;;;;;;;4962243;28;20045;-67
2022/04/29 00:48:12;;;;;;;8.55;4.68;;;;;;;;;;4971202;28;20475;-67
2022/04/29 00:50:57;;;;;;;7.68;5.07;;;;;;;;;;4980956;28;20091;-67
2022/04/29 00:53:43;;;;;;;7.10;4.80;;;;;;;;;;4974541;28;20038;-69
2022/04/29 00:56:29;;;;;;;9.73;5.30;;;;;;;;;;4982935;28;20038;-68
2022/04/29 00:59:24;;;;;;;7.70;4.65;;;;;;;;;;4979613;28;20045;-75
2022/04/29 01:02:09;;;;;;;9.23;5.43;;;;;;;;;;4970875;28;20437;-69
2022/04/29 01:04:59;;;;;;;7.95;5.25;;;;;;;;;;4972807;28;20486;-70
2022/04/29 01:07:45;;;;;;;6.70;4.78;;;;;;;;;;4971486;28;20679;-67
2022/04/29 01:10:31;;;;;;;11.52;5.30;;;;;;;;;;4973989;28;20042;-67
2022/04/29 01:13:17;;;;;;;11.98;5.68;;;;;;;;;;4961874;28;20046;-66
2022/04/29 01:16:06;;;;;;;9.40;5.32;;;;;;;;;;4972847;28;20027;-71
2022/04/29 01:18:53;;;;;;;7.57;5.50;;;;;;;;;;4964303;28;20062;-73
2022/04/29 01:21:38;;;;;;;8.05;5.05;;;;;;;;;;4985933;28;20459;-73
2022/04/29 01:24:23;;;;;;;6.22;4.70;;;;;;;;;;4972574;28;20073;-75
2022/04/29 01:27:10;;;;;;;8.57;5.90;;;;;;;;;;4969864;28;20054;-73
2022/04/29 01:30:01;;;;;;;9.43;5.75;;;;;;;;;;4986219;28;20042;-75
2022/04/29 01:32:46;;;;;;;9.57;6.13;;;;;;;;;;4980432;28;20035;-74
2022/04/29 01:35:32;;;;;;;8.55;5.22;;;;;;;;;;4984286;28;20046;-67
2022/04/29 01:38:17;;;;;;;8.55;5.25;;;;;;;;;;4975462;28;20045;-73
2022/04/29 01:41:03;;;;;;;10.82;5.40;;;;;;;;;;4955171;28;20089;-75
2022/04/29 01:43:48;;;;;;;9.02;5.10;;;;;;;;;;4985053;28;20061;-74
2022/04/29 01:46:33;;;;;;;10.20;5.88;;;;;;;;;;4981952;28;20057;-73
2022/04/29 01:49:18;;;;;;;9.75;4.88;;;;;;;;;;4968971;28;20374;-74
2022/04/29 01:52:04;;;;;;;9.27;5.85;;;;;;;;;;4985422;28;20043;-67
2022/04/29 01:54:49;;;;;;;10.75;5.65;;;;;;;;;;4977660;28;20078;-74
2022/04/29 01:57:35;;;;;;;9.95;5.82;;;;;;;;;;4987392;28;20072;-65
2022/04/29 02:00:20;;;;;;;9.27;5.25;;;;;;;;;;4986864;28;20050;-63
2022/04/29 02:03:06;;;;;;;8.23;5.85;;;;;;;;;;4981105;28;20034;-63
2022/04/29 02:05:51;;;;;;;8.98;5.40;;;;;;;;;;4957323;28;20027;-62
2022/04/29 02:08:36;;;;;;;8.80;5.28;;;;;;;;;;4970560;28;20097;-61
2022/04/29 02:11:22;;;;;;;8.43;5.05;;;;;;;;;;4971604;28;20069;-71
2022/04/29 02:14:08;;;;;;;7.75;5.57;;;;;;;;;;4953256;28;20030;-75
2022/04/29 02:16:55;;;;;;;11.77;6.82;;;;;;;;;;4971263;28;20097;-75
2022/04/29 02:19:41;;;;;;;8.70;5.38;;;;;;;;;;4971390;28;20113;-76
2022/04/29 02:22:26;;;;;;;7.72;5.07;;;;;;;;;;4970432;28;20429;-75
2022/04/29 02:25:12;;;;;;;7.50;5.75;;;;;;;;;;4971736;28;20039;-73
2022/04/29 02:27:58;;;;;;;8.68;5.47;;;;;;;;;;4970100;28;20199;-72
2022/04/29 02:30:43;;;;;;;8.13;5.60;;;;;;;;;;4965543;28;20031;-66
2022/04/29 02:33:28;;;;;;;9.90;6.03;;;;;;;;;;4967850;28;20038;-74
2022/04/29 02:36:14;;;;;;;8.15;6.80;;;;;;;;;;4970512;28;20062;-74
2022/04/29 02:39:01;;;;;;;8.10;5.85;;;;;;;;;;4973155;28;20039;-75
2022/04/29 02:41:48;;;;;;;9.25;6.20;;;;;;;;;;4985106;28;20433;-74
2022/04/29 02:44:33;;;;;;;8.18;5.80;;;;;;;;;;4975751;28;20084;-73
2022/04/29 02:47:18;;;;;;;12.95;6.25;;;;;;;;;;4971743;28;20031;-67
2022/04/29 02:50:04;;;;;;;8.43;5.82;;;;;;;;;;4978459;28;20040;-73
2022/04/29 02:52:49;;;;;;;9.93;5.70;;;;;;;;;;4976231;28;20057;-74
2022/04/29 02:55:34;;;;;;;9.57;6.15;;;;;;;;;;4976215;28;20038;-73
2022/04/29 02:58:19;;;;;;;7.50;5.53;;;;;;;;;;4982853;28;20050;-74
2022/04/29 03:01:05;;;;;;;9.00;6.25;;;;;;;;;;4996508;28;20026;-72
2022/04/29 03:03:50;;;;;;;8.75;5.50;;;;;;;;;;4970928;28;20039;-73
2022/04/29 03:06:35;;;;;;;8.32;5.60;;;;;;;;;;4998762;28;20489;-74
2022/04/29 03:09:20;;;;;;;9.40;6.15;;;;;;;;;;4976044;28;20023;-62
2022/04/29 03:12:06;;;;;;;16.63;6.15;;;;;;;;;;4979210;28;20097;-60
2022/04/29 03:14:51;;;;;;;10.30;5.93;;;;;;;;;;4974436;28;20118;-62
2022/04/29 03:20:41;;;;;;;12.25;6.13;;;;;;;;;;4973068;28;20026;-65
2022/04/29 03:23:27;;;;;;;7.38;5.78;;;;;;;;;;4977687;28;20062;-65
2022/04/29 03:26:12;;;;;;;8.60;6.25;;;;;;;;;;4961535;28;20077;-69
2022/04/29 03:28:57;;;;;;;9.48;5.95;;;;;;;;;;4969499;28;20039;-73
2022/04/29 03:31:42;;;;;;;10.48;6.85;;;;;;;;;;4975449;28;20030;-73
2022/04/29 03:34:28;;;;;;;10.75;6.10;;;;;;;;;;4969498;28;20042;-72
2022/04/29 03:37:13;;;;;;;9.45;5.90;;;;;;;;;;4974900;28;20118;-75
2022/04/29 03:39:58;;;;;;;9.55;6.25;;;;;;;;;;4969559;28;20290;-72
2022/04/29 03:42:43;;;;;;;9.13;5.97;;;;;;;;;;4968097;28;20437;-66
2022/04/29 03:45:29;;;;;;;12.27;7.22;;;;;;;;;;4972112;28;20035;-64
2022/04/29 03:48:14;;;;;;;9.45;6.25;;;;;;;;;;4982916;28;20034;-63
2022/04/29 03:50:59;;;;;;;8.88;6.72;;;;;;;;;;4989435;28;20057;-61
2022/04/29 03:53:44;;;;;;;8.88;6.43;;;;;;;;;;4974201;28;20042;-61
2022/04/29 03:56:30;;;;;;;12.10;6.78;;;;;;;;;;4969622;28;20107;-61
2022/04/29 03:59:15;;;;;;;10.63;6.70;;;;;;;;;;4968090;28;20042;-62
2022/04/29 04:02:00;;;;;;;8.77;6.32;;;;;;;;;;4969920;28;20038;-74
2022/04/29 04:04:48;;;;;;;14.25;6.43;;;;;;;;;;4969460;28;20030;-73
2022/04/29 04:07:34;;;;;;;8.77;6.13;;;;;;;;;;4968358;28;20034;-73
2022/04/29 04:10:19;;;;;;;8.98;6.40;;;;;;;;;;4983195;28;20486;-75
2022/04/29 04:13:05;;;;;;;14.02;7.85;;;;;;;;;;4967353;28;20031;-76
2022/04/29 04:15:50;;;;;;;11.77;6.30;;;;;;;;;;4973626;28;20297;-75
2022/04/29 04:18:35;;;;;;;10.18;7.25;;;;;;;;;;4982194;28;20109;-75
2022/04/29 04:21:20;;;;;;;9.40;6.55;;;;;;;;;;4964816;28;20038;-63
2022/04/29 04:24:06;;;;;;;9.82;7.25;;;;;;;;;;4973493;28;20049;-62
2022/04/29 04:26:51;;;;;;;12.32;7.28;;;;;;;;;;4968632;28;20041;-62
2022/04/29 04:29:37;;;;;;;13.65;7.15;;;;;;;;;;4972014;28;20042;-65
2022/04/29 04:32:22;;;;;;;10.65;6.60;;;;;;;;;;4968532;28;20038;-62
2022/04/29 04:35:07;;;;;;;10.60;6.63;;;;;;;;;;4982929;28;20057;-62
2022/04/29 04:37:53;;;;;;;8.57;6.47;;;;;;;;;;4971587;28;20043;-68
2022/04/29 04:40:38;;;;;;;10.48;7.15;;;;;;;;;;4974259;28;20034;-67
2022/04/29 04:43:23;;;;;;;10.27;6.47;;;;;;;;;;4959377;28;20465;-74
2022/04/29 04:46:09;;;;;;;9.73;6.93;;;;;;;;;;4960812;28;20032;-73
2022/04/29 04:48:55;;;;;;;10.95;7.18;;;;;;;;;;4988952;28;20051;-75
2022/04/29 04:51:40;;;;;;;9.35;6.68;;;;;;;;;;4986772;28;20089;-73
2022/04/29 04:54:25;;;;;;;10.48;6.93;;;;;;;;;;4968209;28;20332;-74
2022/04/29 04:57:11;;;;;;;13.45;7.57;;;;;;;;;;4971891;28;20039;-69
2022/04/29 04:59:56;;;;;;;10.48;7.20;;;;;;;;;;4985331;28;20041;-63
2022/04/29 05:02:41;;;;;;;11.80;7.68;;;;;;;;;;4973221;28;20043;-61
2022/04/29 05:05:26;;;;;;;11.90;7.53;;;;;;;;;;4980707;28;20042;-64
2022/04/29 05:08:12;;;;;;;12.55;7.30;;;;;;;;;;4971865;28;20534;-61
2022/04/29 05:10:57;;;;;;;10.65;6.85;;;;;;;;;;4985244;28;20030;-60
2022/04/29 05:13:42;;;;;;;10.32;7.43;;;;;;;;;;4976833;28;20039;-62
2022/04/29 05:16:27;;;;;;;11.50;8.02;;;;;;;;;;4973285;28;20031;-73
2022/04/29 05:19:13;;;;;;;10.90;7.00;;;;;;;;;;4974219;28;20031;-73
2022/04/29 05:21:58;;;;;;;11.55;7.43;;;;;;;;;;4981891;28;20194;-71
2022/04/29 05:24:46;;;;;;;10.45;7.63;;;;;;;;;;4972228;28;20042;-71
2022/04/29 05:27:32;;;;;;;11.05;7.32;;;;;;;;;;4987029;28;20026;-73
2022/04/29 05:30:17;;;;;;;9.82;7.38;;;;;;;;;;4970373;28;20085;-73
2022/04/29 05:33:02;;;;;;;10.55;8.10;;;;;;;;;;4972092;28;20035;-67
2022/04/29 05:35:47;;;;;;;14.60;7.50;;;;;;;;;;4973671;28;20046;-72
2022/04/29 05:44:42;;;;;;;11.15;7.22;;;;;;;;;;4977719;28;20158;-70
2022/04/29 05:47:27;;;;;;;11.73;8.25;;;;;;;;;;4974421;28;20556;-67
2022/04/29 05:50:13;;;;;;;12.75;8.82;;;;;;;;;;4980718;28;20070;-64
2022/04/29 05:52:58;;;;;;;10.93;7.40;;;;;;;;;;4983296;28;20133;-77
2022/04/29 05:55:43;;;;;;;10.07;6.93;;;;;;;;;;4969853;28;20477;-64
2022/04/29 05:58:28;;;;;;;10.43;7.35;;;;;;;;;;4980517;28;20027;-61
2022/04/29 06:01:14;;;;;;;13.82;7.70;;;;;;;;;;4984923;28;20042;-62
2022/04/29 06:03:59;;;;;;;12.40;8.35;;;;;;;;;;4972054;28;20037;-62
2022/04/29 06:06:44;;;;;;;10.52;7.05;;;;;;;;;;4970446;28;20047;-61
2022/04/29 06:09:29;;;;;;;11.93;7.32;;;;;;;;;;4968259;28;20039;-59
2022/04/29 06:12:15;;;;;;;9.10;6.43;;;;;;;;;;4971883;28;20097;-75
2022/04/29 06:15:00;;;;;;;11.05;7.28;;;;;;;;;;4976295;28;20118;-73
2022/04/29 06:17:45;;;;;;;10.23;7.05;;;;;;;;;;4973766;28;20038;-72
2022/04/29 06:20:30;;;;;;;11.32;6.80;;;;;;;;;;4970003;28;20379;-73
2022/04/29 06:23:16;;;;;;;9.88;6.68;;;;;;;;;;4972108;28;20034;-74
2022/04/29 06:26:01;;;;;;;8.57;6.45;;;;;;;;;;4975564;28;20034;-71
2022/04/29 06:28:46;;;;;;;11.43;6.90;;;;;;;;;;4969324;28;20035;-71
2022/04/29 06:31:31;;;;;;;10.95;7.25;;;;;;;;;;4957088;28;20019;-74
2022/04/29 06:34:17;;;;;;;9.25;6.72;;;;;;;;;;4982221;28;20038;-73
2022/04/29 06:37:03;;;;;;;10.20;6.97;;;;;;;;;;4978195;28;20382;-73
2022/04/29 06:39:48;;;;;;;10.43;6.57;;;;;;;;;;4984385;28;20065;-73
2022/04/29 06:42:46;;;;;;;13.57;7.50;;;;;;;;;;4950658;28;20034;-72
2022/04/29 06:45:32;;;;;;;11.70;7.28;;;;;;;;;;4971072;28;20410;-72
2022/04/29 06:48:17;;;;;;;10.23;7.53;;;;;;;;;;4983970;28;20050;-69
2022/04/29 06:51:02;;;;;;;12.82;8.52;;;;;;;;;;4977557;28;20401;-73
2022/04/29 06:53:48;;;;;;;12.52;8.27;;;;;;;;;;4971561;28;20046;-73
2022/04/29 06:56:33;;;;;;;11.43;8.13;;;;;;;;;;4984022;28;20439;-73
2022/04/29 06:59:18;;;;;;;12.40;8.85;;;;;;;;;;4975641;28;20033;-74
2022/04/29 07:02:04;;;;;;;11.20;8.27;;;;;;;;;;4957206;28;20066;-74
2022/04/29 07:04:49;;;;;;;14.30;8.43;;;;;;;;;;4971660;28;20386;-74
2022/04/29 07:07:34;;;;;;;16.02;8.27;;;;;;;;;;4969121;28;20034;-74
2022/04/29 07:10:19;;;;;;;12.35;8.43;;;;;;;;;;4975823;28;20030;-74
2022/04/29 07:13:05;;;;;;;14.18;7.72;;;;;;;;;;4981927;28;20038;-74
2022/04/29 07:15:50;;;;;;;12.50;8.52;;;;;;;;;;4983072;28;20097;-76
2022/04/29 07:18:36;;;;;;;15.68;10.05;;;;;;;;;;4984113;28;20042;-77
2022/04/29 07:21:21;;;;;;;15.02;8.25;;;;;;;;;;4970877;28;20114;-75
2022/04/29 07:24:07;;;;;;;18.58;9.57;;;;;;;;;;4965726;28;20521;-76
2022/04/29 07:26:52;;;;;;;16.60;10.73;;;;;;;;;;4969938;28;20027;-74
2022/04/29 07:29:37;;;;;;;18.15;10.50;;;;;;;;;;4968133;28;20062;-77
2022/04/29 07:32:24;;;;;;;21.48;10.27;;;;;;;;;;4970999;28;20042;-77
2022/04/29 07:44:21;;;;;;;16.50;10.88;;;;;;;;;;4963009;28;20114;-69
2022/04/29 07:47:07;;;;;;;19.85;11.40;;;;;;;;;;4967985;28;20065;-74
2022/04/29 07:49:53;;;;;;;19.10;9.27;;;;;;;;;;4953663;28;20085;-74
2022/04/29 07:52:38;;;;;;;17.48;9.75;;;;;;;;;;4959341;28;20039;-72
2022/04/29 07:55:23;;;;;;;13.95;9.68;;;;;;;;;;4964196;28;20039;-74
2022/04/29 07:58:09;;;;;;;15.50;9.57;;;;;;;;;;4953842;28;20035;-76
2022/04/29 08:00:55;;;;;;;13.98;8.60;;;;;;;;;;4976481;28;20037;-74
2022/04/29 08:03:41;;;;;;;14.20;8.63;;;;;;;;;;4983574;28;20097;-73
2022/04/29 08:06:26;;;;;;;14.77;8.73;;;;;;;;;;4982436;28;20093;-75
2022/04/29 08:09:12;;;;;;;12.40;7.68;;;;;;;;;;4967796;28;20475;-72
2022/04/29 08:11:57;;;;;;;10.57;7.22;;;;;;;;;;4974339;28;20117;-74
2022/04/29 08:14:44;;;;;;;15.43;8.43;;;;;;;;;;4989110;28;20036;-73
2022/04/29 08:17:29;;;;;;;13.25;8.05;;;;;;;;;;4988676;28;20416;-73
2022/04/29 08:20:14;;;;;;;15.05;8.27;;;;;;;;;;4975653;28;20046;-76
2022/04/29 08:23:00;;;;;;;12.65;8.15;;;;;;;;;;4986364;28;20405;-71
2022/04/29 08:25:45;;;;;;;11.82;7.97;;;;;;;;;;4971520;28;20512;-72
2022/04/29 08:28:30;;;;;;;14.70;8.70;;;;;;;;;;4968911;28;20027;-71
2022/04/29 08:31:16;;;;;;;12.57;8.15;;;;;;;;;;4950270;29;20557;-73
2022/04/29 08:34:01;;;;;;;13.00;8.15;;;;;;;;;;4963371;28;20565;-71
2022/04/29 08:36:46;;;;;;;14.35;8.02;;;;;;;;;;4969590;28;20074;-70
2022/04/29 08:39:31;;;;;;;13.35;8.45;;;;;;;;;;4976226;28;20038;-61
2022/04/29 08:42:18;;;;;;;13.20;7.80;;;;;;;;;;4977289;28;20038;-63
2022/04/29 08:45:07;;;;;;;11.43;7.38;;;;;;;;;;4979783;28;20034;-65
2022/04/29 08:47:53;;;;;;;11.07;7.15;;;;;;;;;;4968327;28;20470;-65
2022/04/29 08:50:38;;;;;;;11.43;7.68;;;;;;;;;;4988881;28;20073;-63
2022/04/29 08:53:24;;;;;;;11.60;6.97;;;;;;;;;;4974386;28;20130;-63
2022/04/29 08:59:14;;;;;;;11.73;7.47;;;;;;;;;;4978415;28;20105;-73
2022/04/29 09:01:59;;;;;;;10.57;6.80;;;;;;;;;;4968464;28;20046;-75
2022/04/29 09:04:45;;;;;;;13.50;7.35;;;;;;;;;;4968060;28;20045;-75
2022/04/29 09:07:49;;;;;;;10.25;6.28;;;;;;;;;;4959524;28;20042;-75
2022/04/29 09:10:35;;;;;;;13.30;7.10;;;;;;;;;;4974432;28;20070;-77
2022/04/29 09:13:24;;;;;;;11.07;6.55;;;;;;;;;;4969113;28;20039;-69
2022/04/29 09:16:12;;;;;;;12.88;6.68;;;;;;;;;;4974640;28;20034;-69
2022/04/29 09:18:58;;;;;;;10.80;5.55;;;;;;;;;;4970472;28;20528;-68
2022/04/29 09:21:43;;;;;;;10.45;5.70;;;;;;;;;;4970056;28;20039;-65
2022/04/29 09:24:28;;;;;;;9.05;6.05;;;;;;;;;;4972777;28;20042;-66
2022/04/29 09:27:14;;;;;;;10.13;5.90;;;;;;;;;;4972762;28;20360;-66
2022/04/29 09:29:59;;;;;;;9.10;5.10;;;;;;;;;;4987312;28;20403;-67
2022/04/29 09:32:51;;;;;;;9.70;4.78;;;;;;;;;;4958386;28;20043;-67
2022/04/29 09:35:42;;;;;;;7.95;4.53;;;;;;;;;;4969068;28;20117;-67
2022/04/29 09:41:31;;;;;;;6.97;4.18;;;;;;;;;;4972067;28;20075;-68
2022/04/29 09:44:27;;;;;;;8.27;5.03;;;;;;;;;;4972172;28;20027;-69
2022/04/29 09:47:14;;;;;;;8.18;4.45;;;;;;;;;;4978539;28;20210;-70
2022/04/29 09:50:01;;;;;;;6.20;4.03;;;;;;;;;;4985429;28;20548;-72
2022/04/29 09:52:49;;;;;;;5.15;4.00;;;;;;;;;;4994970;28;20073;-73
2022/04/29 09:56:03;;;;;;;8.65;4.85;;;;;;;;;;4951280;28;20355;-69
2022/04/29 09:58:49;;;;;;;10.43;5.55;;;;;;;;;;4953360;28;20026;-72
2022/04/29 10:01:34;;;;;;;7.03;4.85;;;;;;;;;;4970877;28;20023;-66
2022/04/29 10:04:20;;;;;;;7.80;4.72;;;;;;;;;;4985531;28;20062;-67
2022/04/29 10:07:06;;;;;;;7.40;4.50;;;;;;;;;;4970791;28;20066;-62
2022/04/29 10:09:52;;;;;;;8.63;4.70;;;;;;;;;;4971039;28;20497;-70
2022/04/29 10:12:38;;;;;;;8.80;4.00;;;;;;;;;;4996410;28;20120;-65
2022/04/29 10:15:24;;;;;;;7.97;5.25;;;;;;;;;;4965898;28;20045;-65
2022/04/29 10:21:16;;;;;;;9.23;5.00;;;;;;;;;;4952549;29;20035;-65
2022/04/29 10:24:01;;;;;;;6.28;4.00;;;;;;;;;;4970214;28;20080;-66
2022/04/29 10:26:47;;;;;;;4.43;2.90;;;;;;;;;;4971196;28;20723;-67
2022/04/29 10:29:33;;;;;;;6.00;3.20;;;;;;;;;;4971301;28;20038;-68
2022/04/29 10:32:18;;;;;;;5.95;3.30;;;;;;;;;;4973214;28;20035;-63
2022/04/29 10:35:24;;;;;;;5.25;3.17;;;;;;;;;;4976799;28;20277;-61
2022/04/29 10:38:16;;;;;;;6.97;3.42;;;;;;;;;;4974570;28;20111;-60
2022/04/29 10:41:09;;;;;;;5.50;3.10;;;;;;;;;;4961188;28;20496;-59
2022/04/29 10:43:54;;;;;;;5.45;2.97;;;;;;;;;;4996733;28;20113;-63
2022/04/29 10:46:40;;;;;;;3.70;2.50;;;;;;;;;;4969359;28;20552;-73
2022/04/29 10:49:30;;;;;;;4.97;2.78;;;;;;;;;;4982684;28;20035;-66
2022/04/29 10:52:28;;;;;;;5.45;2.80;;;;;;;;;;4970526;28;20093;-67
2022/04/29 10:55:23;;;;;;;6.80;2.90;;;;;;;;;;4989256;28;20474;-65
2022/04/29 10:58:18;;;;;;;6.65;3.17;;;;;;;;;;4979358;28;20042;-66
2022/04/29 11:01:23;;;;;;;5.03;3.53;;;;;;;;;;4966903;28;20050;-64
2022/04/29 11:04:15;;;;;;;5.97;3.42;;;;;;;;;;4970647;28;20190;-66
2022/04/29 11:07:00;;;;;;;4.72;2.83;;;;;;;;;;4954390;28;20062;-64
2022/04/29 11:09:45;;;;;;;4.22;2.70;;;;;;;;;;4972488;28;20043;-65
2022/04/29 11:12:36;;;;;;;5.30;3.17;;;;;;;;;;4982528;28;20565;-63
2022/04/29 11:15:23;;;;;;;8.77;3.95;;;;;;;;;;4983203;28;20038;-65
2022/04/29 11:18:15;;;;;;;5.47;2.95;;;;;;;;;;4975137;28;20042;-64
2022/04/29 11:24:40;;;;;;;6.22;3.15;;;;;;;;;;4988739;28;20033;-67
2022/04/29 11:27:10;;;;;;;6.18;3.20;;;;;;;;;;4977230;28;20038;-64
2022/04/29 11:30:02;;;;;;;5.47;3.10;;;;;;;;;;4970544;28;20090;-64
2022/04/29 11:32:47;;;;;;;3.58;3.00;;;;;;;;;;4966347;28;20046;-61
2022/04/29 11:35:32;;;;;;;5.20;3.30;;;;;;;;;;4962720;28;20053;-60
2022/04/29 11:38:17;;;;;;;5.28;3.35;;;;;;;;;;4968136;28;20465;-62
2022/04/29 11:41:03;;;;;;;5.15;3.60;;;;;;;;;;4970297;28;20112;-62
2022/04/29 11:43:49;;;;;;;4.72;3.10;;;;;;;;;;4975026;28;20034;-62
2022/04/29 11:46:48;;;;;;;4.97;3.08;;;;;;;;;;4983891;28;20038;-63
2022/04/29 11:49:34;;;;;;;5.40;3.53;;;;;;;;;;4989423;28;20034;-62
2022/04/29 11:52:27;;;;;;;7.80;3.35;;;;;;;;;;4984111;28;20514;-62
2022/04/29 11:55:13;;;;;;;8.05;3.80;;;;;;;;;;4969215;28;20178;-63
2022/04/29 11:57:59;;;;;;;6.60;3.42;;;;;;;;;;4968695;28;20176;-63
2022/04/29 12:00:52;;;;;;;7.10;3.20;;;;;;;;;;4968738;28;22525;-70
2022/04/29 12:03:45;;;;;;;6.40;3.70;;;;;;;;;;4989351;28;20034;-78
2022/04/29 12:06:30;;;;;;;4.78;3.53;;;;;;;;;;4973863;28;20504;-77
2022/04/29 12:09:15;;;;;;;4.82;3.28;;;;;;;;;;4974077;28;20030;-70
2022/04/29 12:12:01;;;;;;;4.70;3.20;;;;;;;;;;4980753;28;20026;-69
2022/04/29 12:14:47;;;;;;;4.75;3.38;;;;;;;;;;4983242;28;20375;-70
2022/04/29 12:17:38;;;;;;;7.18;4.10;;;;;;;;;;4980767;28;20088;-68
2022/04/29 12:20:23;;;;;;;4.80;3.33;;;;;;;;;;4972813;28;20378;-73
2022/04/29 12:23:24;;;;;;;5.22;3.45;;;;;;;;;;4981802;28;20035;-66
2022/04/29 12:26:10;;;;;;;7.65;3.60;;;;;;;;;;4968218;28;20117;-67
2022/04/29 12:28:55;;;;;;;5.15;3.30;;;;;;;;;;4954080;28;20122;-69
2022/04/29 12:35:03;;;;;;;4.22;3.42;;;;;;;;;;4976113;28;20085;-66
2022/04/29 12:37:49;;;;;;;5.53;3.22;;;;;;;;;;4967538;28;20035;-65
2022/04/29 12:40:35;;;;;;;6.25;3.60;;;;;;;;;;4968309;28;20049;-64
2022/04/29 12:43:20;;;;;;;15.80;6.25;;;;;;;;;;4972782;28;20102;-61
2022/04/29 12:46:21;;;;;;;6.47;3.70;;;;;;;;;;4982710;28;20039;-62
2022/04/29 12:49:06;;;;;;;11.73;3.47;;;;;;;;;;4964695;28;20037;-62
2022/04/29 12:52:01;;;;;;;9.85;4.45;;;;;;;;;;4963460;28;20447;-63
2022/04/29 12:54:46;;;;;;;9.25;4.57;;;;;;;;;;4980115;28;20031;-62
2022/04/29 12:57:32;;;;;;;5.78;3.80;;;;;;;;;;4971036;28;20121;-63
2022/04/29 13:00:25;;;;;;;8.73;3.85;;;;;;;;;;4971661;28;20039;-77
2022/04/29 13:03:15;;;;;;;5.57;3.58;;;;;;;;;;4948099;28;20381;-75
2022/04/29 13:06:01;;;;;;;6.13;3.60;;;;;;;;;;4972860;28;20502;-75
2022/04/29 13:08:50;;;;;;;8.82;3.72;;;;;;;;;;4960791;28;20502;-72
2022/04/29 13:11:35;;;;;;;7.95;4.47;;;;;;;;;;4971478;28;20383;-75
2022/04/29 13:14:21;;;;;;;5.25;3.28;;;;;;;;;;4970713;28;20043;-71
2022/04/29 13:17:06;;;;;;;6.20;3.85;;;;;;;;;;4972697;28;20482;-72
2022/04/29 13:19:51;;;;;;;8.93;3.70;;;;;;;;;;4972498;28;20043;-70
2022/04/29 13:22:37;;;;;;;4.95;3.33;;;;;;;;;;4970918;28;20065;-71
2022/04/29 13:25:23;;;;;;;5.95;3.13;;;;;;;;;;4973736;28;20210;-69
2022/04/29 13:28:09;;;;;;;6.22;3.47;;;;;;;;;;4968368;28;20113;-70
2022/04/29 13:30:54;;;;;;;9.40;3.88;;;;;;;;;;4971361;28;20430;-71
2022/04/29 13:33:39;;;;;;;5.90;3.92;;;;;;;;;;4948011;28;20066;-71
2022/04/29 13:36:26;;;;;;;6.18;3.17;;;;;;;;;;4969775;28;20042;-66
2022/04/29 13:39:11;;;;;;;4.45;2.83;;;;;;;;;;4982425;28;20050;-62
2022/04/29 13:41:57;;;;;;;4.65;3.40;;;;;;;;;;4972429;28;20069;-63
2022/04/29 13:44:42;;;;;;;8.55;3.42;;;;;;;;;;4968928;28;20066;-64
2022/04/29 13:47:32;;;;;;;4.60;3.10;;;;;;;;;;4971117;28;20030;-62
2022/04/29 13:50:17;;;;;;;6.32;3.63;;;;;;;;;;4968832;28;20428;-70
2022/04/29 13:53:09;;;;;;;7.25;3.38;;;;;;;;;;4971433;28;20050;-70
2022/04/29 13:55:54;;;;;;;6.25;4.18;;;;;;;;;;4960829;28;20039;-70
2022/04/29 13:58:39;;;;;;;4.88;3.72;;;;;;;;;;4958552;28;20109;-71
2022/04/29 14:01:24;;;;;;;6.80;3.47;;;;;;;;;;4980591;28;20030;-69
2022/04/29 14:04:09;;;;;;;7.00;3.75;;;;;;;;;;4964514;28;20258;-69
2022/04/29 14:06:55;;;;;;;5.03;3.38;;;;;;;;;;4983881;28;20042;-71
2022/04/29 14:09:41;;;;;;;5.80;3.72;;;;;;;;;;4966613;28;20450;-70
2022/04/29 14:12:26;;;;;;;4.90;3.53;;;;;;;;;;4974022;28;20098;-73
2022/04/29 14:15:11;;;;;;;3.60;3.13;;;;;;;;;;4968850;28;20442;-73
2022/04/29 14:17:57;;;;;;;5.25;3.85;;;;;;;;;;4970547;28;20102;-71
2022/04/29 14:20:42;;;;;;;5.63;3.38;;;;;;;;;;4961074;28;20427;-71
2022/04/29 14:23:27;;;;;;;5.90;3.10;;;;;;;;;;4969229;28;20038;-72
2022/04/29 14:26:12;;;;;;;4.45;3.63;;;;;;;;;;4970109;28;20232;-72
2022/04/29 14:28:59;;;;;;;6.32;3.45;;;;;;;;;;4970215;28;20057;-72
2022/04/29 14:31:44;;;;;;;8.27;3.67;;;;;;;;;;4971835;28;20113;-71
2022/04/29 14:34:32;;;;;;;6.10;3.38;;;;;;;;;;4969343;28;20035;-71
2022/04/29 14:37:17;;;;;;;4.78;3.33;;;;;;;;;;4971513;28;20038;-74
2022/04/29 14:40:03;;;;;;;6.68;3.53;;;;;;;;;;4970571;28;20062;-71
2022/04/29 14:42:49;;;;;;;7.10;3.75;;;;;;;;;;4970357;28;20047;-72
2022/04/29 14:45:34;;;;;;;5.82;3.30;;;;;;;;;;4970531;28;20035;-68
2022/04/29 14:48:19;;;;;;;7.35;3.70;;;;;;;;;;4970049;28;20378;-69
2022/04/29 14:51:05;;;;;;;6.38;3.60;;;;;;;;;;4969839;28;20042;-71
2022/04/29 14:53:50;;;;;;;5.85;3.03;;;;;;;;;;4970150;28;20034;-72
2022/04/29 14:56:38;;;;;;;4.32;3.20;;;;;;;;;;4969006;28;20043;-71
2022/04/29 14:59:24;;;;;;;6.75;3.72;;;;;;;;;;4969797;28;20042;-69
2022/04/29 15:02:09;;;;;;;5.53;3.55;;;;;;;;;;4967024;28;20035;-71
2022/04/29 15:04:54;;;;;;;4.53;3.47;;;;;;;;;;4969022;28;20555;-75
2022/04/29 15:07:39;;;;;;;6.20;3.63;;;;;;;;;;4961979;28;20038;-76
2022/04/29 15:16:33;;;;;;;4.80;4.05;;;;;;;;;;4968628;28;20050;-75
2022/04/29 15:19:18;;;;;;;5.15;3.38;;;;;;;;;;4955564;28;20034;-78
2022/04/29 15:22:03;;;;;;;6.55;3.95;;;;;;;;;;4971412;28;20046;-77
2022/04/29 15:24:48;;;;;;;7.47;4.18;;;;;;;;;;4967200;28;20038;-72
2022/04/29 15:27:34;;;;;;;7.40;4.18;;;;;;;;;;4970016;28;20141;-70
2022/04/29 15:30:19;;;;;;;7.00;3.50;;;;;;;;;;4969237;28;20481;-71
2022/04/29 15:33:05;;;;;;;4.90;3.42;;;;;;;;;;4970273;28;20113;-71
2022/04/29 15:35:51;;;;;;;6.13;3.50;;;;;;;;;;4975179;28;20344;-71
2022/04/29 15:38:36;;;;;;;5.10;3.80;;;;;;;;;;4991322;28;20073;-70
2022/04/29 15:41:21;;;;;;;6.07;3.80;;;;;;;;;;4979037;28;20023;-75
2022/04/29 15:44:07;;;;;;;5.70;3.53;;;;;;;;;;4970045;28;20536;-62
2022/04/29 15:46:52;;;;;;;6.32;3.45;;;;;;;;;;4970143;28;20126;-60
2022/04/29 15:49:37;;;;;;;4.30;3.50;;;;;;;;;;4958493;28;20606;-60
2022/04/29 15:52:22;;;;;;;7.03;3.60;;;;;;;;;;4989876;28;20066;-60
2022/04/29 15:55:08;;;;;;;5.50;4.00;;;;;;;;;;4983825;28;20038;-61
2022/04/29 15:57:53;;;;;;;9.23;4.07;;;;;;;;;;4969886;28;20050;-60
2022/04/29 16:00:39;;;;;;;5.10;3.83;;;;;;;;;;4977069;28;20319;-72
2022/04/29 16:03:24;;;;;;;5.13;3.63;;;;;;;;;;4950858;28;20054;-64
2022/04/29 16:06:11;;;;;;;5.82;3.42;;;;;;;;;;4978590;28;20488;-63
2022/04/29 16:08:57;;;;;;;6.65;3.78;;;;;;;;;;4983321;28;20042;-66
2022/04/29 16:11:42;;;;;;;4.65;3.28;;;;;;;;;;4982478;28;20034;-66
2022/04/29 16:14:28;;;;;;;4.85;3.13;;;;;;;;;;4969835;28;20250;-64
2022/04/29 16:17:13;;;;;;;5.40;3.20;;;;;;;;;;4967531;28;20375;-63
2022/04/29 16:26:10;;;;;;;6.65;3.80;;;;;;;;;;4973015;28;20466;-69
2022/04/29 16:28:56;;;;;;;7.03;4.50;;;;;;;;;;4985279;28;20085;-70
2022/04/29 16:31:41;;;;;;;6.18;4.20;;;;;;;;;;4976588;28;20030;-70
2022/04/29 16:34:28;;;;;;;5.60;3.50;;;;;;;;;;4973528;28;20097;-71
2022/04/29 16:37:15;;;;;;;7.45;4.43;;;;;;;;;;4982358;28;20058;-71
2022/04/29 16:40:00;;;;;;;4.85;3.58;;;;;;;;;;4968610;28;20031;-70
2022/04/29 16:42:45;;;;;;;6.28;3.50;;;;;;;;;;4976571;28;20034;-69
2022/04/29 16:45:31;;;;;;;5.13;3.45;;;;;;;;;;4984212;28;20039;-70
2022/04/29 16:48:16;;;;;;;5.10;3.53;;;;;;;;;;4987292;28;20046;-69
2022/04/29 16:51:03;;;;;;;5.88;3.90;;;;;;;;;;4992755;28;20109;-68
2022/04/29 16:53:48;;;;;;;4.97;3.38;;;;;;;;;;4984718;28;20049;-70
2022/04/29 16:58:42;;;;;;;5.32;3.17;;;;;;;;;;4986647;28;20035;-70
2022/04/29 16:59:39;;;;;;;3.22;2.58;;;;;;;;;;4963649;28;20034;-69
2022/04/29 17:02:24;;;;;;;7.32;3.08;;;;;;;;;;4976746;28;20038;-68
2022/04/29 17:05:11;;;;;;;4.90;2.90;;;;;;;;;;4981088;28;20033;-71
2022/04/29 17:07:56;;;;;;;6.22;2.88;;;;;;;;;;4972617;28;20505;-70
2022/04/29 17:10:41;;;;;;;3.78;2.42;;;;;;;;;;4973133;28;20385;-70
2022/04/29 17:13:27;;;;;;;6.85;3.63;;;;;;;;;;4973751;28;20112;-72
2022/04/29 17:16:13;;;;;;;3.65;2.92;;;;;;;;;;4979603;28;20066;-65
2022/04/29 17:18:58;;;;;;;6.15;2.75;;;;;;;;;;4974898;28;20030;-64